createdAt,value
2023-03-01T00:01:13.485Z,103007.00
2023-03-01T00:03:43.285Z,103025.97
2023-03-01T00:06:11.775Z,103028.50
2023-03-01T00:08:39.503Z,103025.97
2023-03-01T00:11:09.751Z,103027.78
2023-03-01T00:13:38.157Z,103029.03
2023-03-01T00:16:06.981Z,103028.78
2023-03-01T00:18:35.366Z,103030.03
2023-03-01T00:21:04.924Z,103037.34
2023-03-01T00:23:33.099Z,103035.66
2023-03-01T00:26:00.955Z,103020.75
2023-03-01T00:28:28.764Z,103028.75
2023-03-01T00:30:56.523Z,103019.91
2023-03-01T00:33:24.261Z,103021.72
2023-03-01T00:35:51.960Z,103019.91
2023-03-01T00:38:21.029Z,103026.22
2023-03-01T00:40:48.702Z,103022.72
2023-03-01T00:43:16.520Z,103027.22
2023-03-01T00:45:44.503Z,103019.19
2023-03-01T00:48:12.207Z,103017.50
2023-03-01T00:50:39.991Z,103017.78
2023-03-01T00:53:07.692Z,103019.72
2023-03-01T00:55:38.408Z,103019.00
2023-03-01T00:58:06.151Z,103017.31
2023-03-01T01:00:34.741Z,103006.66
2023-03-01T01:03:02.472Z,103001.59
2023-03-01T01:05:30.189Z,103002.44
2023-03-01T01:07:57.893Z,102998.22
2023-03-01T01:10:25.636Z,102997.25
2023-03-01T01:12:54.733Z,102993.03
2023-03-01T01:15:22.423Z,102992.19
2023-03-01T01:17:50.177Z,102985.16
2023-03-01T01:20:18.266Z,102994.00
2023-03-01T01:22:46.510Z,102992.44
2023-03-01T01:25:14.372Z,102987.25
2023-03-01T01:27:42.072Z,102978.53
2023-03-01T01:30:12.848Z,102968.84
2023-03-01T01:32:40.910Z,102963.78
2023-03-01T01:35:09.220Z,102965.63
2023-03-01T01:37:37.144Z,102961.13
2023-03-01T01:40:05.799Z,102953.97
2023-03-01T01:42:33.766Z,102950.59
2023-03-01T01:45:33.156Z,102951.56
2023-03-01T01:48:05.498Z,102948.06
2023-03-01T01:50:38.885Z,102949.75
2023-03-01T01:53:11.008Z,102950.03
2023-03-01T01:55:42.114Z,102943.00
2023-03-01T01:58:11.629Z,102947.50
2023-03-01T02:00:41.160Z,102944.25
2023-03-01T02:03:13.694Z,102943.56
2023-03-01T02:05:54.974Z,102940.19
2023-03-01T02:08:27.048Z,102937.50
2023-03-01T02:10:56.731Z,102930.19
2023-03-01T02:13:24.434Z,102930.63
2023-03-01T02:15:53.916Z,102929.78
2023-03-01T02:18:25.559Z,102923.75
2023-03-01T02:21:07.475Z,102917.28
2023-03-01T02:23:36.166Z,102920.09
2023-03-01T02:26:12.319Z,102918.41
2023-03-01T02:28:43.040Z,102914.06
2023-03-01T02:31:30.412Z,102908.88
2023-03-01T02:33:58.749Z,102909.97
2023-03-01T02:36:29.127Z,102912.66
2023-03-01T02:39:00.846Z,102918.97
2023-03-01T02:41:32.746Z,102920.78
2023-03-01T02:44:01.852Z,102921.06
2023-03-01T02:46:30.527Z,102922.03
2023-03-01T02:49:00.288Z,102923.03
2023-03-01T02:51:48.118Z,102920.50
2023-03-01T02:54:24.843Z,102920.63
2023-03-01T02:56:53.796Z,102928.75
2023-03-01T02:59:26.609Z,102923.56
2023-03-01T03:01:54.424Z,102927.22
2023-03-01T03:04:22.812Z,102915.84
2023-03-01T03:06:52.639Z,102922.16
2023-03-01T03:09:21.048Z,102919.63
2023-03-01T03:11:49.558Z,102918.78
2023-03-01T03:14:18.959Z,102917.09
2023-03-01T03:16:50.011Z,102916.25
2023-03-01T03:19:18.495Z,102911.75
2023-03-01T03:21:46.262Z,102913.72
2023-03-01T03:24:14.016Z,102915.41
2023-03-01T03:26:41.695Z,102900.25
2023-03-01T03:29:09.352Z,102916.38
2023-03-01T03:31:37.095Z,102907.53
2023-03-01T03:34:06.265Z,102902.38
2023-03-01T03:36:34.032Z,102913.59
2023-03-01T03:39:01.716Z,102909.94
2023-03-01T03:41:29.400Z,102912.06
2023-03-01T03:43:57.105Z,102906.88
2023-03-01T03:46:24.774Z,102895.19
2023-03-01T03:48:52.505Z,102901.53
2023-03-01T03:51:23.660Z,102900.81
2023-03-01T03:53:51.417Z,102906.03
2023-03-01T03:56:19.109Z,102901.81
2023-03-01T03:58:46.814Z,102906.44
2023-03-01T04:01:14.526Z,102901.09
2023-03-01T04:03:47.458Z,102904.03
2023-03-01T04:06:15.865Z,102890.84
2023-03-01T04:08:44.921Z,102896.31
2023-03-01T04:11:29.380Z,102886.19
2023-03-01T04:13:59.119Z,102890.53
2023-03-01T04:16:27.166Z,102885.09
2023-03-01T04:18:55.502Z,102884.94
2023-03-01T04:21:23.502Z,102886.91
2023-03-01T04:23:53.570Z,102882.56
2023-03-01T04:26:22.407Z,102886.34
2023-03-01T04:28:51.468Z,102886.47
2023-03-01T04:31:22.411Z,102878.47
2023-03-01T04:33:52.216Z,102876.66
2023-03-01T04:36:22.289Z,102877.75
2023-03-01T04:38:50.071Z,102871.72
2023-03-01T04:41:21.625Z,102874.66
2023-03-01T04:43:49.533Z,102870.19
2023-03-01T04:46:18.907Z,102867.38
2023-03-01T04:48:48.734Z,102843.50
2023-03-01T04:51:16.939Z,102839.16
2023-03-01T04:53:45.736Z,102845.75
2023-03-01T04:56:14.809Z,102844.06
2023-03-01T04:58:43.972Z,102855.72
2023-03-01T05:01:16.364Z,102860.06
2023-03-01T05:03:45.556Z,102854.03
2023-03-01T05:06:13.805Z,102856.81
2023-03-01T05:08:42.195Z,102860.47
2023-03-01T05:11:10.844Z,102869.44
2023-03-01T05:13:39.501Z,102865.78
2023-03-01T05:16:12.246Z,102862.28
2023-03-01T05:18:40.743Z,102866.06
2023-03-01T05:21:11.050Z,102853.59
2023-03-01T05:23:39.268Z,102839.97
2023-03-01T05:26:16.168Z,102846.84
2023-03-01T05:28:50.971Z,102836.31
2023-03-01T05:31:20.117Z,102837.03
2023-03-01T05:33:47.850Z,102837.03
2023-03-01T05:36:15.583Z,102834.38
2023-03-01T05:38:43.265Z,102822.88
2023-03-01T05:41:16.480Z,102823.13
2023-03-01T05:43:45.904Z,102813.47
2023-03-01T05:46:16.214Z,102821.59
2023-03-01T05:48:45.686Z,102811.75
2023-03-01T05:51:13.666Z,102824.13
2023-03-01T05:53:41.368Z,102824.97
2023-03-01T05:56:09.610Z,102825.09
2023-03-01T05:58:39.567Z,102817.09
2023-03-01T06:01:07.318Z,102824.97
2023-03-01T06:03:35.034Z,102817.94
2023-03-01T06:06:04.110Z,102823.28
2023-03-01T06:08:31.855Z,102817.69
2023-03-01T06:10:59.614Z,102816.47
2023-03-01T06:13:27.319Z,102807.22
2023-03-01T06:15:55.076Z,102814.56
2023-03-01T06:18:22.909Z,102812.44
2023-03-01T06:20:55.628Z,102820.16
2023-03-01T06:23:24.765Z,102818.91
2023-03-01T06:25:53.594Z,102812.28
2023-03-01T06:28:21.672Z,102818.06
2023-03-01T06:30:49.433Z,102823.38
2023-03-01T06:33:17.144Z,102822.94
2023-03-01T06:35:44.916Z,102825.03
2023-03-01T06:38:13.026Z,102823.66
2023-03-01T06:40:42.463Z,102829.44
2023-03-01T06:43:10.257Z,102833.50
2023-03-01T06:45:39.336Z,102825.34
2023-03-01T06:48:07.810Z,102818.63
2023-03-01T06:50:36.606Z,102824.94
2023-03-01T06:53:04.654Z,102818.88
2023-03-01T06:55:33.087Z,102826.59
2023-03-01T06:58:03.679Z,102819.19
2023-03-01T07:00:31.676Z,102810.91
2023-03-01T07:03:01.466Z,102813.00
2023-03-01T07:05:29.449Z,102811.59
2023-03-01T07:07:57.550Z,102812.84
2023-03-01T07:10:25.834Z,102812.13
2023-03-01T07:12:57.072Z,102803.28
2023-03-01T07:15:26.897Z,102823.88
2023-03-01T07:17:54.599Z,102821.50
2023-03-01T07:20:25.394Z,102836.75
2023-03-01T07:22:53.198Z,102837.59
2023-03-01T07:25:20.911Z,102837.75
2023-03-01T07:27:51.599Z,102845.03
2023-03-01T07:30:19.695Z,102838.13
2023-03-01T07:32:48.978Z,102843.47
2023-03-01T07:35:16.951Z,102840.94
2023-03-01T07:37:44.858Z,102841.22
2023-03-01T07:40:13.824Z,102842.19
2023-03-01T07:42:41.612Z,102835.44
2023-03-01T07:45:10.061Z,102844.00
2023-03-01T07:47:38.398Z,102844.00
2023-03-01T07:50:08.434Z,102845.81
2023-03-01T07:52:36.224Z,102841.47
2023-03-01T07:55:03.961Z,102843.28
2023-03-01T07:57:32.523Z,102837.13
2023-03-01T08:00:00.219Z,102837.84
2023-03-01T08:02:27.905Z,102836.28
2023-03-01T08:04:55.647Z,102839.78
2023-03-01T08:07:24.738Z,102837.13
2023-03-01T08:09:52.490Z,102843.44
2023-03-01T08:12:20.331Z,102841.59
2023-03-01T08:14:48.015Z,102842.44
2023-03-01T08:17:16.100Z,102832.91
2023-03-01T08:19:44.791Z,102836.16
2023-03-01T08:22:12.582Z,102829.00
2023-03-01T08:24:41.666Z,102830.81
2023-03-01T08:27:09.683Z,102828.44
2023-03-01T08:29:37.511Z,102832.50
2023-03-01T08:32:05.733Z,102838.69
2023-03-01T08:34:33.539Z,102836.00
2023-03-01T08:37:01.292Z,102825.50
2023-03-01T08:39:29.195Z,102818.34
2023-03-01T08:41:59.164Z,102821.84
2023-03-01T08:44:27.112Z,102819.06
2023-03-01T08:46:56.630Z,102815.56
2023-03-01T08:49:24.630Z,102816.25
2023-03-01T08:51:52.333Z,102816.25
2023-03-01T08:54:22.326Z,102799.13
2023-03-01T08:56:50.647Z,102802.69
2023-03-01T08:59:20.468Z,102803.78
2023-03-01T09:01:48.237Z,102795.34
2023-03-01T09:04:17.366Z,102800.28
2023-03-01T09:06:45.404Z,102808.56
2023-03-01T09:09:17.189Z,102803.38
2023-03-01T09:11:46.929Z,102802.41
2023-03-01T09:14:15.037Z,102796.94
2023-03-01T09:16:44.584Z,102794.53
2023-03-01T09:19:12.369Z,102786.56
2023-03-01T09:21:41.350Z,102782.91
2023-03-01T09:24:15.474Z,102790.78
2023-03-01T09:26:43.935Z,102780.25
2023-03-01T09:29:11.781Z,102778.28
2023-03-01T09:31:39.795Z,102781.81
2023-03-01T09:34:09.950Z,102781.81
2023-03-01T09:36:38.147Z,102784.31
2023-03-01T09:39:07.814Z,102787.69
2023-03-01T09:41:51.517Z,102779.97
2023-03-01T09:44:40.145Z,102777.03
2023-03-01T09:47:13.899Z,102764.97
2023-03-01T09:49:49.577Z,102767.63
2023-03-01T09:52:28.720Z,102754.06
2023-03-01T09:55:00.412Z,102752.09
2023-03-01T09:57:35.075Z,102742.28
2023-03-01T10:00:16.141Z,102753.63
2023-03-01T10:02:47.018Z,102750.84
2023-03-01T10:05:27.278Z,102741.16
2023-03-01T10:08:08.223Z,102738.50
2023-03-01T10:10:39.678Z,102727.00
2023-03-01T10:13:17.168Z,102731.78
2023-03-01T10:15:49.706Z,102724.59
2023-03-01T10:18:22.494Z,102718.28
2023-03-01T10:20:55.512Z,102716.84
2023-03-01T10:23:25.316Z,102708.94
2023-03-01T10:26:05.483Z,102699.91
2023-03-01T10:28:46.785Z,102703.19
2023-03-01T10:31:18.677Z,102681.03
2023-03-01T10:33:48.920Z,102681.84
2023-03-01T10:36:18.222Z,102689.06
2023-03-01T10:38:53.303Z,102688.53
2023-03-01T10:41:21.587Z,102690.13
2023-03-01T10:43:51.185Z,102690.88
2023-03-01T10:46:27.619Z,102692.47
2023-03-01T10:49:14.045Z,102690.16
2023-03-01T10:51:44.561Z,102683.34
2023-03-01T10:54:19.380Z,102685.09
2023-03-01T10:56:53.702Z,102683.94
2023-03-01T10:59:28.972Z,102684.56
2023-03-01T11:02:24.578Z,102687.50
2023-03-01T11:05:04.765Z,102698.16
2023-03-01T11:07:49.125Z,102695.41
2023-03-01T11:10:20.753Z,102692.47
2023-03-01T11:12:48.527Z,102689.91
2023-03-01T11:15:25.956Z,102685.94
2023-03-01T11:18:00.822Z,102694.00
2023-03-01T11:20:38.440Z,102687.56
2023-03-01T11:23:12.925Z,102694.34
2023-03-01T11:25:44.918Z,102684.50
2023-03-01T11:28:17.951Z,102684.34
2023-03-01T11:31:07.139Z,102682.38
2023-03-01T11:33:43.258Z,102679.41
2023-03-01T11:36:18.869Z,102688.25
2023-03-01T11:38:48.301Z,102670.16
2023-03-01T11:41:19.363Z,102673.97
2023-03-01T11:43:54.415Z,102667.78
2023-03-01T11:46:47.561Z,102662.16
2023-03-01T11:49:43.014Z,102668.34
2023-03-01T11:52:20.900Z,102651.91
2023-03-01T11:55:07.221Z,102657.34
2023-03-01T11:57:50.950Z,102649.88
2023-03-01T12:00:36.872Z,102651.28
2023-03-01T12:03:30.323Z,102650.13
2023-03-01T12:06:13.170Z,102647.31
2023-03-01T12:08:44.625Z,102647.00
2023-03-01T12:11:34.466Z,102638.84
2023-03-01T12:14:19.821Z,102639.53
2023-03-01T12:17:19.287Z,102624.94
2023-03-01T12:20:14.602Z,102632.22
2023-03-01T12:22:54.272Z,102626.88
2023-03-01T12:25:37.063Z,102616.88
2023-03-01T12:28:27.456Z,102621.22
2023-03-01T12:31:33.271Z,102604.97
2023-03-01T12:34:10.416Z,102609.25
2023-03-01T12:36:57.100Z,102619.78
2023-03-01T12:39:42.114Z,102613.22
2023-03-01T12:42:18.443Z,102608.63
2023-03-01T12:45:04.147Z,102610.00
2023-03-01T12:47:55.604Z,102598.25
2023-03-01T12:50:25.659Z,102593.13
2023-03-01T12:52:55.181Z,102583.06
2023-03-01T12:55:31.483Z,102583.28
2023-03-01T12:58:10.606Z,102576.09
2023-03-01T13:00:46.859Z,102578.66
2023-03-01T13:03:25.122Z,102570.59
2023-03-01T13:06:08.723Z,102558.47
2023-03-01T13:08:44.640Z,102566.56
2023-03-01T13:11:19.818Z,102570.31
2023-03-01T13:13:49.814Z,102557.59
2023-03-01T13:16:46.023Z,102549.81
2023-03-01T13:19:17.577Z,102546.25
2023-03-01T13:21:46.120Z,102543.53
2023-03-01T13:24:27.736Z,102542.84
2023-03-01T13:27:12.986Z,102530.56
2023-03-01T13:29:47.248Z,102524.88
2023-03-01T13:32:31.643Z,102523.69
2023-03-01T13:35:45.133Z,102533.03
2023-03-01T13:38:46.800Z,102520.94
2023-03-01T13:41:15.845Z,102500.69
2023-03-01T13:43:45.363Z,102507.03
2023-03-01T13:46:19.760Z,102503.38
2023-03-01T13:48:53.485Z,102490.81
2023-03-01T13:51:25.661Z,102492.50
2023-03-01T13:53:54.913Z,102481.28
2023-03-01T13:56:27.872Z,102489.16
2023-03-01T13:59:00.372Z,102487.47
2023-03-01T14:01:33.866Z,102477.63
2023-03-01T14:04:04.773Z,102473.94
2023-03-01T14:06:34.749Z,102475.25
2023-03-01T14:09:10.779Z,102477.09
2023-03-01T14:12:05.510Z,102468.97
2023-03-01T14:14:44.203Z,102464.16
2023-03-01T14:17:32.646Z,102468.56
2023-03-01T14:20:05.238Z,102460.59
2023-03-01T14:22:36.346Z,102453.41
2023-03-01T14:25:07.721Z,102453.78
2023-03-01T14:27:40.387Z,102452.94
2023-03-01T14:30:17.012Z,102451.44
2023-03-01T14:32:45.173Z,102453.59
2023-03-01T14:35:24.102Z,102462.16
2023-03-01T14:37:52.036Z,102449.06
2023-03-01T14:40:26.510Z,102457.44
2023-03-01T14:42:56.319Z,102451.06
2023-03-01T14:45:27.067Z,102439.34
2023-03-01T14:47:57.025Z,102441.69
2023-03-01T14:50:29.228Z,102430.63
2023-03-01T14:52:59.487Z,102438.16
2023-03-01T14:55:31.362Z,102430.63
2023-03-01T14:58:01.953Z,102423.06
2023-03-01T15:00:33.979Z,102416.38
2023-03-01T15:03:14.308Z,102414.69
2023-03-01T15:05:45.205Z,102408.50
2023-03-01T15:08:20.072Z,102405.53
2023-03-01T15:10:59.285Z,102404.88
2023-03-01T15:13:31.036Z,102413.09
2023-03-01T15:16:06.497Z,102405.22
2023-03-01T15:18:34.631Z,102405.19
2023-03-01T15:21:10.843Z,102406.97
2023-03-01T15:23:40.650Z,102408.56
2023-03-01T15:26:08.692Z,102407.16
2023-03-01T15:28:51.255Z,102405.78
2023-03-01T15:31:22.435Z,102404.56
2023-03-01T15:33:50.551Z,102406.59
2023-03-01T15:36:42.587Z,102399.81
2023-03-01T15:39:44.278Z,102390.38
2023-03-01T15:42:13.762Z,102401.00
2023-03-01T15:44:45.937Z,102406.22
2023-03-01T15:47:31.615Z,102408.56
2023-03-01T15:50:01.761Z,102398.84
2023-03-01T15:52:37.664Z,102403.53
2023-03-01T15:55:08.882Z,102396.16
2023-03-01T15:57:36.640Z,102400.34
2023-03-01T16:00:12.178Z,102406.72
2023-03-01T16:02:40.386Z,102393.66
2023-03-01T16:05:18.417Z,102386.47
2023-03-01T16:07:48.182Z,102389.13
2023-03-01T16:10:16.191Z,102389.13
2023-03-01T16:12:43.938Z,102383.28
2023-03-01T16:15:18.447Z,102378.94
2023-03-01T16:17:47.238Z,102378.94
2023-03-01T16:20:27.282Z,102377.09
2023-03-01T16:22:58.769Z,102375.91
2023-03-01T16:25:26.472Z,102368.88
2023-03-01T16:27:54.541Z,102351.00
2023-03-01T16:30:24.172Z,102356.50
2023-03-01T16:32:52.668Z,102353.00
2023-03-01T16:35:22.794Z,102361.00
2023-03-01T16:37:53.567Z,102362.34
2023-03-01T16:40:25.438Z,102361.09
2023-03-01T16:42:53.518Z,102366.25
2023-03-01T16:45:25.504Z,102359.88
2023-03-01T16:47:55.650Z,102371.63
2023-03-01T16:50:23.978Z,102366.81
2023-03-01T16:52:51.799Z,102374.41
2023-03-01T16:55:19.716Z,102372.91
2023-03-01T16:57:48.853Z,102372.91
2023-03-01T17:00:18.787Z,102370.22
2023-03-01T17:02:46.644Z,102366.72
2023-03-01T17:05:14.880Z,102375.25
2023-03-01T17:07:43.366Z,102368.06
2023-03-01T17:10:12.839Z,102373.75
2023-03-01T17:12:40.974Z,102371.56
2023-03-01T17:15:13.002Z,102368.41
2023-03-01T17:17:40.830Z,102371.41
2023-03-01T17:20:11.652Z,102375.25
2023-03-01T17:22:39.415Z,102372.06
2023-03-01T17:25:09.523Z,102379.59
2023-03-01T17:27:38.568Z,102382.44
2023-03-01T17:30:09.109Z,102383.44
2023-03-01T17:32:38.454Z,102382.59
2023-03-01T17:35:08.057Z,102384.59
2023-03-01T17:37:37.032Z,102380.94
2023-03-01T17:40:05.557Z,102385.78
2023-03-01T17:42:33.336Z,102383.78
2023-03-01T17:45:01.636Z,102386.28
2023-03-01T17:47:29.308Z,102391.50
2023-03-01T17:49:58.365Z,102390.13
2023-03-01T17:52:26.167Z,102395.56
2023-03-01T17:54:53.893Z,102395.69
2023-03-01T17:57:21.624Z,102398.34
2023-03-01T17:59:49.355Z,102391.81
2023-03-01T18:02:19.144Z,102390.88
2023-03-01T18:04:47.008Z,102390.94
2023-03-01T18:07:16.040Z,102389.81
2023-03-01T18:09:44.014Z,102394.84
2023-03-01T18:12:11.854Z,102405.03
2023-03-01T18:14:40.168Z,102407.72
2023-03-01T18:17:11.868Z,102406.88
2023-03-01T18:19:41.197Z,102408.56
2023-03-01T18:22:09.729Z,102401.19
2023-03-01T18:24:39.869Z,102407.03
2023-03-01T18:27:07.921Z,102413.72
2023-03-01T18:29:37.594Z,102412.38
2023-03-01T18:32:05.796Z,102404.53
2023-03-01T18:34:34.817Z,102407.72
2023-03-01T18:37:10.230Z,102398.34
2023-03-01T18:39:41.614Z,102398.03
2023-03-01T18:42:09.777Z,102389.28
2023-03-01T18:44:38.474Z,102395.25
2023-03-01T18:47:06.306Z,102389.19
2023-03-01T18:49:34.035Z,102382.09
2023-03-01T18:52:01.781Z,102386.59
2023-03-01T18:54:29.507Z,102380.97
2023-03-01T18:56:58.621Z,102380.84
2023-03-01T18:59:26.340Z,102375.56
2023-03-01T19:01:54.335Z,102377.09
2023-03-01T19:04:22.194Z,102379.41
2023-03-01T19:06:49.888Z,102365.88
2023-03-01T19:09:17.653Z,102373.41
2023-03-01T19:11:45.411Z,102374.75
2023-03-01T19:14:14.501Z,102368.41
2023-03-01T19:16:42.283Z,102373.25
2023-03-01T19:19:10.734Z,102368.41
2023-03-01T19:21:38.619Z,102381.28
2023-03-01T19:24:07.406Z,102379.94
2023-03-01T19:26:35.839Z,102386.63
2023-03-01T19:29:04.965Z,102378.25
2023-03-01T19:31:34.223Z,102388.13
2023-03-01T19:34:11.111Z,102383.09
2023-03-01T19:36:41.742Z,102383.44
2023-03-01T19:39:10.336Z,102379.41
2023-03-01T19:41:38.069Z,102368.34
2023-03-01T19:44:06.543Z,102385.25
2023-03-01T19:46:36.273Z,102389.25
2023-03-01T19:49:04.294Z,102382.06
2023-03-01T19:51:36.311Z,102389.44
2023-03-01T19:54:04.388Z,102380.72
2023-03-01T19:56:32.477Z,102387.91
2023-03-01T19:59:04.090Z,102383.06
2023-03-01T20:01:33.084Z,102379.03
2023-03-01T20:04:02.699Z,102385.22
2023-03-01T20:06:30.998Z,102382.72
2023-03-01T20:09:02.329Z,102381.19
2023-03-01T20:11:34.156Z,102387.72
2023-03-01T20:14:04.106Z,102389.03
2023-03-01T20:16:32.238Z,102375.66
2023-03-01T20:19:02.367Z,102385.69
2023-03-01T20:21:30.105Z,102385.84
2023-03-01T20:23:57.816Z,102381.66
2023-03-01T20:26:26.541Z,102386.34
2023-03-01T20:28:56.917Z,102379.13
2023-03-01T20:31:29.255Z,102376.25
2023-03-01T20:33:59.257Z,102389.66
2023-03-01T20:36:28.883Z,102386.47
2023-03-01T20:38:57.163Z,102380.28
2023-03-01T20:41:26.396Z,102370.59
2023-03-01T20:43:59.353Z,102375.25
2023-03-01T20:46:32.406Z,102381.59
2023-03-01T20:49:01.052Z,102378.94
2023-03-01T20:51:30.738Z,102373.06
2023-03-01T20:53:58.661Z,102371.25
2023-03-01T20:56:27.523Z,102370.56
2023-03-01T20:58:57.888Z,102364.03
2023-03-01T21:01:27.364Z,102371.72
2023-03-01T21:03:55.842Z,102358.66
2023-03-01T21:06:23.578Z,102370.22
2023-03-01T21:08:52.823Z,102376.56
2023-03-01T21:11:24.772Z,102377.72
2023-03-01T21:13:52.774Z,102373.38
2023-03-01T21:16:20.908Z,102370.69
2023-03-01T21:18:49.213Z,102370.84
2023-03-01T21:21:19.680Z,102365.50
2023-03-01T21:23:47.834Z,102366.66
2023-03-01T21:26:19.272Z,102358.50
2023-03-01T21:28:47.620Z,102362.00
2023-03-01T21:31:17.516Z,102359.31
2023-03-01T21:33:46.969Z,102353.16
2023-03-01T21:36:16.135Z,102352.50
2023-03-01T21:38:45.913Z,102345.81
2023-03-01T21:41:16.611Z,102343.97
2023-03-01T21:43:46.713Z,102337.78
2023-03-01T21:46:17.187Z,102345.97
2023-03-01T21:48:46.062Z,102341.78
2023-03-01T21:51:15.594Z,102334.75
2023-03-01T21:53:43.854Z,102337.75
2023-03-01T21:56:18.290Z,102345.75
2023-03-01T21:58:46.036Z,102351.28
2023-03-01T22:01:16.427Z,102341.75
2023-03-01T22:03:46.135Z,102348.91
2023-03-01T22:06:19.174Z,102349.91
2023-03-01T22:08:48.985Z,102355.41
2023-03-01T22:11:19.707Z,102349.41
2023-03-01T22:13:49.391Z,102351.06
2023-03-01T22:16:17.673Z,102353.91
2023-03-01T22:18:45.465Z,102354.06
2023-03-01T22:21:13.347Z,102345.53
2023-03-01T22:23:42.078Z,102351.88
2023-03-01T22:26:20.740Z,102358.22
2023-03-01T22:28:49.800Z,102361.88
2023-03-01T22:31:17.538Z,102359.34
2023-03-01T22:33:45.265Z,102367.53
2023-03-01T22:36:12.981Z,102364.03
2023-03-01T22:38:41.760Z,102370.19
2023-03-01T22:41:10.255Z,102365.03
2023-03-01T22:43:38.691Z,102366.84
2023-03-01T22:46:16.507Z,102365.34
2023-03-01T22:48:44.810Z,102367.31
2023-03-01T22:51:16.197Z,102379.00
2023-03-01T22:53:44.091Z,102378.31
2023-03-01T22:56:14.107Z,102378.47
2023-03-01T22:58:42.128Z,102368.63
2023-03-01T23:01:11.930Z,102372.31
2023-03-01T23:03:41.334Z,102362.63
2023-03-01T23:06:09.393Z,102363.47
2023-03-01T23:08:37.748Z,102351.09
2023-03-01T23:11:11.395Z,102360.09
2023-03-01T23:13:39.332Z,102356.44
2023-03-01T23:16:07.824Z,102353.09
2023-03-01T23:18:35.632Z,102360.25
2023-03-01T23:21:10.256Z,102343.56
2023-03-01T23:23:38.362Z,102358.91
2023-03-01T23:26:06.925Z,102357.91
2023-03-01T23:28:35.417Z,102361.56
2023-03-01T23:31:05.593Z,102361.72
2023-03-01T23:33:37.746Z,102357.53
2023-03-01T23:36:06.713Z,102358.53
2023-03-01T23:38:35.830Z,102357.00
2023-03-01T23:41:03.855Z,102353.50
2023-03-01T23:43:33.134Z,102351.84
2023-03-01T23:46:00.888Z,102349.16
2023-03-01T23:48:28.794Z,102337.13
2023-03-01T23:50:56.701Z,102343.13
2023-03-01T23:53:24.409Z,102349.47
2023-03-01T23:55:55.473Z,102346.13
2023-03-01T23:58:28.626Z,102347.81
